createdAt,value
2023-04-09T00:01:33.591Z,98101.13
2023-04-09T00:04:00.933Z,98094.31
2023-04-09T00:06:27.616Z,98089.78
2023-04-09T00:08:54.283Z,98093.63
2023-04-09T00:11:21.559Z,98097.66
2023-04-09T00:13:48.159Z,98088.06
2023-04-09T00:16:14.754Z,98086.53
2023-04-09T00:18:41.728Z,98090.75
2023-04-09T00:21:08.745Z,98079.72
2023-04-09T00:23:36.006Z,98084.63
2023-04-09T00:26:02.508Z,98086.19
2023-04-09T00:28:29.004Z,98075.47
2023-04-09T00:30:55.500Z,98077.50
2023-04-09T00:33:21.958Z,98079.94
2023-04-09T00:35:48.517Z,98075.47
2023-04-09T00:38:15.480Z,98080.84
2023-04-09T00:40:42.271Z,98076.69
2023-04-09T00:43:08.784Z,98077.41
2023-04-09T00:45:36.146Z,98072.53
2023-04-09T00:48:02.766Z,98077.69
2023-04-09T00:50:29.240Z,98074.38
2023-04-09T00:52:55.733Z,98069.97
2023-04-09T00:55:22.498Z,98080.22
2023-04-09T00:57:49.263Z,98080.44
2023-04-09T01:00:15.854Z,98069.69
2023-04-09T01:02:43.239Z,98074.97
2023-04-09T01:05:10.795Z,98070.44
2023-04-09T01:07:40.359Z,98077.50
2023-04-09T01:10:27.238Z,98065.78
2023-04-09T01:12:53.795Z,98066.66
2023-04-09T01:15:26.840Z,98068.19
2023-04-09T01:18:02.077Z,98079.47
2023-04-09T01:20:43.717Z,98074.59
2023-04-09T01:23:10.341Z,98071.28
2023-04-09T01:25:44.249Z,98079.28
2023-04-09T01:28:10.899Z,98084.59
2023-04-09T01:30:37.336Z,98075.25
2023-04-09T01:33:05.945Z,98079.94
2023-04-09T01:35:32.695Z,98075.69
2023-04-09T01:38:00.758Z,98068.66
2023-04-09T01:40:27.387Z,98072.88
2023-04-09T01:42:54.648Z,98065.31
2023-04-09T01:45:21.114Z,98073.00
2023-04-09T01:47:47.905Z,98060.56
2023-04-09T01:50:15.267Z,98056.03
2023-04-09T01:52:41.945Z,98063.41
2023-04-09T01:55:08.457Z,98066.47
2023-04-09T01:57:35.111Z,98064.28
2023-04-09T02:00:01.698Z,98065.09
2023-04-09T02:02:37.137Z,98065.19
2023-04-09T02:05:07.693Z,98057.72
2023-04-09T02:07:45.844Z,98052.13
2023-04-09T02:10:13.712Z,98048.22
2023-04-09T02:12:42.758Z,98062.94
2023-04-09T02:15:09.437Z,98057.03
2023-04-09T02:17:36.086Z,98065.22
2023-04-09T02:20:02.632Z,98057.75
2023-04-09T02:22:29.968Z,98060.31
2023-04-09T02:24:56.497Z,98069.28
2023-04-09T02:27:22.965Z,98066.28
2023-04-09T02:29:49.512Z,98059.88
2023-04-09T02:32:16.011Z,98060.94
2023-04-09T02:34:42.568Z,98063.72
2023-04-09T02:37:09.082Z,98055.59
2023-04-09T02:39:35.711Z,98056.03
2023-04-09T02:42:02.278Z,98048.59
2023-04-09T02:44:28.808Z,98056.22
2023-04-09T02:46:56.507Z,98050.94
2023-04-09T02:49:23.241Z,98055.84
2023-04-09T02:51:49.698Z,98049.66
2023-04-09T02:54:16.193Z,98048.88
2023-04-09T02:56:42.656Z,98048.13
2023-04-09T02:59:09.286Z,98050.44
2023-04-09T03:01:36.447Z,98049.28
2023-04-09T03:04:03.292Z,98055.81
2023-04-09T03:06:30.045Z,98044.31
2023-04-09T03:08:56.531Z,98042.59
2023-04-09T03:11:23.000Z,98048.34
2023-04-09T03:13:49.521Z,98046.31
2023-04-09T03:16:16.052Z,98036.19
2023-04-09T03:18:42.556Z,98037.69
2023-04-09T03:21:09.397Z,98035.53
2023-04-09T03:23:39.871Z,98037.91
2023-04-09T03:26:07.993Z,98038.84
2023-04-09T03:28:42.242Z,98043.69
2023-04-09T03:31:08.768Z,98037.16
2023-04-09T03:33:37.542Z,98038.53
2023-04-09T03:36:04.164Z,98040.22
2023-04-09T03:38:45.411Z,98039.53
2023-04-09T03:41:23.517Z,98028.50
2023-04-09T03:43:50.974Z,98032.56
2023-04-09T03:46:22.430Z,98035.94
2023-04-09T03:48:49.496Z,98038.06
2023-04-09T03:51:16.449Z,98042.78
2023-04-09T03:53:49.153Z,98046.19
2023-04-09T03:56:15.818Z,98040.66
2023-04-09T03:58:43.479Z,98044.22
2023-04-09T04:01:12.262Z,98040.38
2023-04-09T04:03:48.830Z,98040.75
2023-04-09T04:06:28.443Z,98040.22
2023-04-09T04:09:03.627Z,98047.69
2023-04-09T04:11:43.180Z,98046.81
2023-04-09T04:14:10.366Z,98052.88
2023-04-09T04:16:43.149Z,98060.47
2023-04-09T04:19:11.889Z,98047.47
2023-04-09T04:21:44.260Z,98048.94
2023-04-09T04:24:10.919Z,98052.75
2023-04-09T04:26:37.424Z,98050.38
2023-04-09T04:29:04.188Z,98053.25
2023-04-09T04:31:53.614Z,98061.16
2023-04-09T04:34:23.110Z,98055.47
2023-04-09T04:36:57.720Z,98057.81
2023-04-09T04:39:27.893Z,98065.53
2023-04-09T04:41:59.921Z,98067.06
2023-04-09T04:44:27.679Z,98064.72
2023-04-09T04:47:06.001Z,98065.41
2023-04-09T04:49:32.561Z,98062.84
2023-04-09T04:52:01.343Z,98066.25
2023-04-09T04:54:28.310Z,98060.50
2023-04-09T04:56:57.281Z,98070.22
2023-04-09T04:59:42.364Z,98063.75
2023-04-09T05:02:11.668Z,98060.00
2023-04-09T05:05:01.541Z,98058.59
2023-04-09T05:07:35.019Z,98058.09
2023-04-09T05:10:02.022Z,98057.75
2023-04-09T05:12:34.838Z,98056.91
2023-04-09T05:15:02.128Z,98063.09
2023-04-09T05:17:29.749Z,98063.84
2023-04-09T05:19:57.823Z,98065.22
2023-04-09T05:22:32.732Z,98064.81
2023-04-09T05:24:59.390Z,98070.34
2023-04-09T05:27:28.210Z,98070.53
2023-04-09T05:30:00.871Z,98067.31
2023-04-09T05:32:27.963Z,98076.31
2023-04-09T05:34:55.507Z,98074.06
2023-04-09T05:37:22.234Z,98062.75
2023-04-09T05:39:52.107Z,98072.91
2023-04-09T05:42:18.675Z,98077.25
2023-04-09T05:45:04.072Z,98074.38
2023-04-09T05:47:31.269Z,98081.66
2023-04-09T05:50:03.297Z,98085.53
2023-04-09T05:52:30.154Z,98077.44
2023-04-09T05:54:57.423Z,98091.66
2023-04-09T05:57:32.530Z,98086.69
2023-04-09T06:00:02.631Z,98077.22
2023-04-09T06:02:29.473Z,98088.47
2023-04-09T06:04:56.297Z,98086.28
2023-04-09T06:07:22.894Z,98090.34
2023-04-09T06:09:49.485Z,98090.84
2023-04-09T06:12:16.442Z,98089.88
2023-04-09T06:14:42.946Z,98097.19
2023-04-09T06:17:09.423Z,98100.00
2023-04-09T06:19:35.946Z,98090.91
2023-04-09T06:22:02.426Z,98099.63
2023-04-09T06:24:30.856Z,98094.84
2023-04-09T06:26:57.304Z,98097.47
2023-04-09T06:29:24.422Z,98102.44
2023-04-09T06:31:51.037Z,98105.28
2023-04-09T06:34:17.514Z,98095.59
2023-04-09T06:36:44.529Z,98099.94
2023-04-09T06:39:11.025Z,98101.72
2023-04-09T06:41:37.489Z,98100.63
2023-04-09T06:44:12.505Z,98112.09
2023-04-09T06:46:39.092Z,98098.78
2023-04-09T06:49:05.962Z,98102.56
2023-04-09T06:51:32.546Z,98108.47
2023-04-09T06:53:59.090Z,98114.22
2023-04-09T06:56:25.770Z,98116.78
2023-04-09T06:58:52.278Z,98113.03
2023-04-09T07:01:19.525Z,98118.06
2023-04-09T07:03:46.700Z,98120.06
2023-04-09T07:06:13.243Z,98125.97
2023-04-09T07:08:39.704Z,98124.22
2023-04-09T07:11:06.224Z,98126.38
2023-04-09T07:13:33.262Z,98134.38
2023-04-09T07:16:00.456Z,98138.38
2023-04-09T07:18:27.185Z,98129.22
2023-04-09T07:20:53.771Z,98134.38
2023-04-09T07:23:20.527Z,98136.19
2023-04-09T07:25:47.268Z,98139.84
2023-04-09T07:28:13.947Z,98135.28
2023-04-09T07:30:40.470Z,98140.16
2023-04-09T07:33:07.043Z,98148.03
2023-04-09T07:35:34.752Z,98147.09
2023-04-09T07:38:01.308Z,98150.31
2023-04-09T07:40:27.777Z,98139.03
2023-04-09T07:42:55.670Z,98146.59
2023-04-09T07:45:22.165Z,98153.28
2023-04-09T07:47:48.714Z,98145.28
2023-04-09T07:50:15.864Z,98150.53
2023-04-09T07:52:42.697Z,98145.69
2023-04-09T07:55:09.266Z,98150.03
2023-04-09T07:57:36.823Z,98155.38
2023-04-09T08:00:03.866Z,98145.38
2023-04-09T08:02:39.677Z,98157.75
2023-04-09T08:05:06.690Z,98155.91
2023-04-09T08:07:33.181Z,98156.53
2023-04-09T08:09:59.636Z,98166.06
2023-04-09T08:12:26.150Z,98159.28
2023-04-09T08:14:52.681Z,98160.13
2023-04-09T08:17:19.187Z,98168.66
2023-04-09T08:19:45.659Z,98170.16
2023-04-09T08:22:12.133Z,98170.84
2023-04-09T08:24:40.208Z,98161.66
2023-04-09T08:27:06.712Z,98163.16
2023-04-09T08:29:34.450Z,98165.47
2023-04-09T08:32:01.248Z,98162.69
2023-04-09T08:34:28.104Z,98173.13
2023-04-09T08:36:55.665Z,98180.00
2023-04-09T08:39:22.279Z,98173.13
2023-04-09T08:41:49.742Z,98171.69
2023-04-09T08:44:16.707Z,98172.91
2023-04-09T08:46:43.356Z,98187.69
2023-04-09T08:49:10.858Z,98188.66
2023-04-09T08:51:37.427Z,98187.31
2023-04-09T08:54:04.669Z,98192.16
2023-04-09T08:56:32.043Z,98192.59
2023-04-09T08:58:58.666Z,98192.06
2023-04-09T09:01:26.664Z,98193.06
2023-04-09T09:03:53.253Z,98200.16
2023-04-09T09:06:24.147Z,98196.50
2023-04-09T09:09:05.131Z,98193.72
2023-04-09T09:11:32.128Z,98195.53
2023-04-09T09:14:00.290Z,98198.50
2023-04-09T09:16:27.396Z,98206.31
2023-04-09T09:18:55.901Z,98202.34
2023-04-09T09:21:23.010Z,98197.88
2023-04-09T09:23:50.650Z,98199.44
2023-04-09T09:26:24.888Z,98204.81
2023-04-09T09:28:52.085Z,98207.28
2023-04-09T09:31:20.324Z,98207.38
2023-04-09T09:33:48.226Z,98200.56
2023-04-09T09:36:16.391Z,98202.88
2023-04-09T09:38:57.166Z,98210.44
2023-04-09T09:41:24.348Z,98204.34
2023-04-09T09:43:50.997Z,98211.91
2023-04-09T09:46:17.782Z,98215.06
2023-04-09T09:48:46.324Z,98215.06
2023-04-09T09:51:13.491Z,98219.47
2023-04-09T09:53:41.739Z,98211.53
2023-04-09T09:56:12.681Z,98213.63
2023-04-09T09:58:45.279Z,98225.81
2023-04-09T10:01:13.355Z,98217.13
2023-04-09T10:03:40.399Z,98210.31
2023-04-09T10:06:07.819Z,98207.66
2023-04-09T10:08:34.832Z,98205.75
2023-04-09T10:11:01.899Z,98213.16
2023-04-09T10:13:48.617Z,98209.31
2023-04-09T10:16:15.465Z,98206.72
2023-04-09T10:18:42.641Z,98203.88
2023-04-09T10:21:15.921Z,98199.16
2023-04-09T10:23:44.298Z,98195.75
2023-04-09T10:26:11.282Z,98201.25
2023-04-09T10:28:38.236Z,98195.97
2023-04-09T10:31:05.510Z,98191.75
2023-04-09T10:33:32.182Z,98190.47
2023-04-09T10:36:04.551Z,98195.03
2023-04-09T10:38:34.441Z,98190.69
2023-04-09T10:41:06.646Z,98184.63
2023-04-09T10:43:34.719Z,98180.22
2023-04-09T10:46:01.911Z,98176.41
2023-04-09T10:48:32.444Z,98175.09
2023-04-09T10:50:58.976Z,98172.91
2023-04-09T10:53:26.138Z,98170.31
2023-04-09T10:55:53.126Z,98173.44
2023-04-09T10:58:19.870Z,98171.19
2023-04-09T11:00:47.694Z,98173.84
2023-04-09T11:03:20.825Z,98164.38
2023-04-09T11:05:50.624Z,98170.63
2023-04-09T11:08:17.062Z,98168.44
2023-04-09T11:10:45.115Z,98169.72
2023-04-09T11:13:13.420Z,98159.50
2023-04-09T11:15:40.128Z,98163.59
2023-04-09T11:18:09.988Z,98161.34
2023-04-09T11:20:36.829Z,98159.28
2023-04-09T11:23:03.373Z,98156.94
2023-04-09T11:25:31.431Z,98159.41
2023-04-09T11:27:58.255Z,98155.41
2023-04-09T11:30:24.938Z,98151.63
2023-04-09T11:32:51.548Z,98151.53
2023-04-09T11:35:21.570Z,98149.78
2023-04-09T11:37:50.046Z,98156.47
2023-04-09T11:40:17.748Z,98150.34
2023-04-09T11:42:44.966Z,98153.16
2023-04-09T11:45:12.197Z,98151.34
2023-04-09T11:47:42.825Z,98146.69
2023-04-09T11:50:09.915Z,98149.44
2023-04-09T11:52:36.688Z,98145.41
2023-04-09T11:55:04.453Z,98147.19
2023-04-09T11:57:41.803Z,98149.00
2023-04-09T12:00:18.158Z,98149.06
2023-04-09T12:02:46.602Z,98150.38
2023-04-09T12:05:23.563Z,98152.50
2023-04-09T12:07:56.294Z,98154.13
2023-04-09T12:10:26.685Z,98143.19
2023-04-09T12:12:53.184Z,98141.94
2023-04-09T12:15:24.230Z,98145.03
2023-04-09T12:17:54.877Z,98138.00
2023-04-09T12:20:27.760Z,98132.22
2023-04-09T12:22:54.436Z,98135.03
2023-04-09T12:25:20.989Z,98127.38
2023-04-09T12:27:47.593Z,98131.56
2023-04-09T12:30:14.256Z,98133.41
2023-04-09T12:32:40.907Z,98119.66
2023-04-09T12:35:07.601Z,98133.88
2023-04-09T12:37:34.116Z,98126.63
2023-04-09T12:40:00.671Z,98137.28
2023-04-09T12:42:27.202Z,98133.13
2023-04-09T12:44:53.660Z,98136.06
2023-04-09T12:47:20.125Z,98143.06
2023-04-09T12:49:46.767Z,98137.03
2023-04-09T12:52:13.230Z,98145.94
2023-04-09T12:54:40.391Z,98149.94
2023-04-09T12:57:06.948Z,98151.22
2023-04-09T12:59:33.463Z,98143.19
2023-04-09T13:02:00.394Z,98150.41
2023-04-09T13:04:27.060Z,98154.38
2023-04-09T13:06:53.716Z,98158.09
2023-04-09T13:09:20.184Z,98156.03
2023-04-09T13:11:46.676Z,98155.13
2023-04-09T13:14:14.377Z,98160.66
2023-04-09T13:16:40.896Z,98173.47
2023-04-09T13:19:08.428Z,98172.31
2023-04-09T13:21:35.304Z,98173.66
2023-04-09T13:24:03.115Z,98180.94
2023-04-09T13:26:30.836Z,98175.84
2023-04-09T13:28:58.600Z,98177.19
2023-04-09T13:31:25.325Z,98184.59
2023-04-09T13:33:51.867Z,98187.97
2023-04-09T13:36:18.307Z,98182.28
2023-04-09T13:38:44.850Z,98180.00
2023-04-09T13:41:11.438Z,98183.50
2023-04-09T13:43:37.960Z,98179.72
2023-04-09T13:46:04.904Z,98172.97
2023-04-09T13:48:31.574Z,98183.31
2023-04-09T13:50:58.085Z,98172.16
2023-04-09T13:53:25.162Z,98178.25
2023-04-09T13:55:51.663Z,98175.72
2023-04-09T13:58:18.196Z,98176.78
2023-04-09T14:00:44.720Z,98180.47
2023-04-09T14:03:11.417Z,98179.00
2023-04-09T14:05:37.954Z,98176.28
2023-04-09T14:08:04.456Z,98185.13
2023-04-09T14:10:31.008Z,98178.75
2023-04-09T14:12:58.190Z,98184.34
2023-04-09T14:15:24.827Z,98178.06
2023-04-09T14:17:51.652Z,98180.84
2023-04-09T14:20:19.975Z,98173.09
2023-04-09T14:22:49.319Z,98175.78
2023-04-09T14:25:15.949Z,98176.44
2023-04-09T14:27:42.414Z,98167.22
2023-04-09T14:30:12.747Z,98179.44
2023-04-09T14:32:39.410Z,98179.47
2023-04-09T14:35:06.036Z,98182.25
2023-04-09T14:37:32.597Z,98181.91
2023-04-09T14:39:59.117Z,98174.09
2023-04-09T14:42:25.663Z,98180.88
2023-04-09T14:44:52.115Z,98177.38
2023-04-09T14:47:18.632Z,98177.03
2023-04-09T14:49:45.184Z,98172.97
2023-04-09T14:52:11.663Z,98171.53
2023-04-09T14:54:38.244Z,98165.47
2023-04-09T14:57:04.764Z,98164.22
2023-04-09T14:59:31.222Z,98173.34
2023-04-09T15:01:57.728Z,98166.88
2023-04-09T15:04:24.465Z,98162.03
2023-04-09T15:06:51.318Z,98175.03
2023-04-09T15:09:17.824Z,98165.84
2023-04-09T15:11:44.320Z,98171.41
2023-04-09T15:14:10.768Z,98170.03
2023-04-09T15:16:37.562Z,98170.59
2023-04-09T15:19:04.459Z,98171.97
2023-04-09T15:21:31.654Z,98172.59
2023-04-09T15:23:59.124Z,98173.31
2023-04-09T15:26:27.118Z,98169.56
2023-04-09T15:29:06.441Z,98177.69
2023-04-09T15:31:33.174Z,98171.63
2023-04-09T15:34:00.049Z,98181.97
2023-04-09T15:36:27.068Z,98173.75
2023-04-09T15:38:53.918Z,98175.22
2023-04-09T15:41:23.752Z,98172.19
2023-04-09T15:43:50.935Z,98175.94
2023-04-09T15:46:18.293Z,98180.78
2023-04-09T15:48:45.314Z,98173.00
2023-04-09T15:51:11.893Z,98182.31
2023-04-09T15:53:38.337Z,98187.72
2023-04-09T15:56:05.455Z,98182.28
2023-04-09T15:58:32.318Z,98185.06
2023-04-09T16:00:58.898Z,98184.09
2023-04-09T16:03:25.831Z,98185.44
2023-04-09T16:05:52.338Z,98188.81
2023-04-09T16:08:18.775Z,98183.88
2023-04-09T16:10:45.619Z,98187.72
2023-04-09T16:13:12.122Z,98189.16
2023-04-09T16:15:38.716Z,98180.31
2023-04-09T16:18:06.208Z,98178.50
2023-04-09T16:20:32.703Z,98183.13
2023-04-09T16:22:59.225Z,98178.78
2023-04-09T16:25:25.867Z,98185.59
2023-04-09T16:27:52.337Z,98185.81
2023-04-09T16:30:18.807Z,98184.84
2023-04-09T16:32:45.333Z,98184.63
2023-04-09T16:35:11.817Z,98189.25
2023-04-09T16:37:38.817Z,98185.34
2023-04-09T16:40:05.561Z,98188.28
2023-04-09T16:42:32.826Z,98183.16
2023-04-09T16:44:59.335Z,98198.50
2023-04-09T16:47:25.961Z,98196.06
2023-04-09T16:49:52.529Z,98193.25
2023-04-09T16:52:19.056Z,98194.72
2023-04-09T16:54:45.917Z,98189.84
2023-04-09T16:57:12.740Z,98192.84
2023-04-09T16:59:40.782Z,98199.63
2023-04-09T17:02:07.741Z,98195.31
2023-04-09T17:04:34.797Z,98196.28
2023-04-09T17:07:01.264Z,98200.63
2023-04-09T17:09:28.275Z,98199.53
2023-04-09T17:11:55.407Z,98196.50
2023-04-09T17:14:22.076Z,98196.97
2023-04-09T17:16:48.670Z,98200.41
2023-04-09T17:19:15.406Z,98202.88
2023-04-09T17:21:42.062Z,98201.91
2023-04-09T17:24:08.521Z,98196.28
2023-04-09T17:26:35.176Z,98200.44
2023-04-09T17:29:02.145Z,98204.59
2023-04-09T17:31:28.669Z,98208.25
2023-04-09T17:33:55.220Z,98207.75
2023-04-09T17:36:22.883Z,98207.75
2023-04-09T17:38:51.901Z,98208.72
2023-04-09T17:41:18.741Z,98214.69
2023-04-09T17:43:46.086Z,98222.59
2023-04-09T17:46:12.790Z,98229.50
2023-04-09T17:48:39.553Z,98230.84
2023-04-09T17:51:06.421Z,98224.31
2023-04-09T17:53:32.968Z,98224.31
2023-04-09T17:55:59.456Z,98228.44
2023-04-09T17:58:26.612Z,98226.41
2023-04-09T18:00:53.851Z,98225.41
2023-04-09T18:03:21.023Z,98233.72
2023-04-09T18:05:47.868Z,98229.22
2023-04-09T18:08:14.312Z,98232.63
2023-04-09T18:10:40.860Z,98238.84
2023-04-09T18:13:07.317Z,98241.22
2023-04-09T18:15:33.850Z,98240.59
2023-04-09T18:18:00.495Z,98240.25
2023-04-09T18:20:27.292Z,98249.84
2023-04-09T18:22:55.321Z,98246.50
2023-04-09T18:25:23.309Z,98246.09
2023-04-09T18:27:49.954Z,98251.44
2023-04-09T18:30:16.447Z,98249.25
2023-04-09T18:32:43.437Z,98249.09
2023-04-09T18:35:10.315Z,98249.78
2023-04-09T18:37:38.113Z,98250.16
2023-04-09T18:40:04.815Z,98247.66
2023-04-09T18:42:31.250Z,98252.09
2023-04-09T18:44:57.755Z,98258.91
2023-04-09T18:47:25.902Z,98255.84
2023-04-09T18:49:52.428Z,98250.72
2023-04-09T18:52:18.923Z,98260.63
2023-04-09T18:54:45.377Z,98259.13
2023-04-09T18:57:11.874Z,98251.84
2023-04-09T18:59:40.000Z,98265.78
2023-04-09T19:02:06.846Z,98260.28
2023-04-09T19:04:39.610Z,98267.69
2023-04-09T19:07:06.630Z,98270.09
2023-04-09T19:09:33.571Z,98275.69
2023-04-09T19:12:01.578Z,98279.28
2023-04-09T19:14:28.104Z,98279.34
2023-04-09T19:16:54.728Z,98278.97
2023-04-09T19:19:21.314Z,98278.75
2023-04-09T19:21:48.003Z,98274.63
2023-04-09T19:24:14.456Z,98281.50
2023-04-09T19:26:40.970Z,98279.16
2023-04-09T19:29:07.744Z,98280.78
2023-04-09T19:31:34.229Z,98280.13
2023-04-09T19:34:00.863Z,98275.78
2023-04-09T19:36:27.359Z,98277.16
2023-04-09T19:38:54.031Z,98291.75
2023-04-09T19:41:20.750Z,98280.69
2023-04-09T19:43:47.297Z,98281.72
2023-04-09T19:46:13.821Z,98278.72
2023-04-09T19:48:40.862Z,98271.28
2023-04-09T19:51:07.382Z,98277.72
2023-04-09T19:53:36.210Z,98273.81
2023-04-09T19:56:03.165Z,98274.72
2023-04-09T19:58:29.934Z,98273.09
2023-04-09T20:00:56.508Z,98278.63
2023-04-09T20:03:23.094Z,98278.97
2023-04-09T20:05:49.741Z,98272.75
2023-04-09T20:08:16.629Z,98272.16
2023-04-09T20:10:46.314Z,98272.94
2023-04-09T20:13:13.014Z,98272.34
2023-04-09T20:15:39.489Z,98277.03
2023-04-09T20:18:06.201Z,98282.09
2023-04-09T20:20:32.831Z,98275.53
2023-04-09T20:22:59.587Z,98272.34
2023-04-09T20:25:26.372Z,98272.56
2023-04-09T20:27:53.808Z,98271.94
2023-04-09T20:30:20.565Z,98275.53
2023-04-09T20:32:48.950Z,98278.34
2023-04-09T20:35:15.905Z,98275.88
2023-04-09T20:37:42.462Z,98273.00
2023-04-09T20:40:09.116Z,98273.88
2023-04-09T20:42:35.625Z,98277.50
2023-04-09T20:45:02.252Z,98281.13
2023-04-09T20:47:28.924Z,98283.63
2023-04-09T20:49:59.679Z,98284.88
2023-04-09T20:52:28.473Z,98278.81
2023-04-09T20:54:55.347Z,98280.59
2023-04-09T20:57:22.160Z,98283.13
2023-04-09T20:59:50.041Z,98280.03
2023-04-09T21:02:17.001Z,98276.63
2023-04-09T21:04:43.506Z,98275.03
2023-04-09T21:07:10.392Z,98274.97
2023-04-09T21:09:36.888Z,98276.00
2023-04-09T21:12:03.432Z,98286.59
2023-04-09T21:14:29.948Z,98287.75
2023-04-09T21:16:56.476Z,98280.63
2023-04-09T21:19:23.016Z,98286.84
2023-04-09T21:21:49.789Z,98285.34
2023-04-09T21:24:16.411Z,98279.88
2023-04-09T21:26:49.941Z,98290.59
2023-04-09T21:29:17.310Z,98285.59
2023-04-09T21:31:43.904Z,98284.25
2023-04-09T21:34:10.477Z,98284.13
2023-04-09T21:36:39.217Z,98285.16
2023-04-09T21:39:05.854Z,98279.94
2023-04-09T21:41:32.325Z,98280.44
2023-04-09T21:44:03.340Z,98276.00
2023-04-09T21:46:29.861Z,98280.09
2023-04-09T21:48:56.330Z,98283.88
2023-04-09T21:51:22.818Z,98286.75
2023-04-09T21:53:49.685Z,98288.91
2023-04-09T21:56:16.133Z,98288.72
2023-04-09T21:58:42.667Z,98294.25
2023-04-09T22:01:18.802Z,98292.53
2023-04-09T22:03:53.021Z,98294.28
2023-04-09T22:06:19.724Z,98307.28
2023-04-09T22:08:55.495Z,98309.22
2023-04-09T22:11:28.077Z,98304.75
2023-04-09T22:13:58.141Z,98308.16
2023-04-09T22:16:25.220Z,98309.91
2023-04-09T22:18:52.598Z,98308.06
2023-04-09T22:21:19.306Z,98302.41
2023-04-09T22:23:45.795Z,98309.47
2023-04-09T22:26:12.362Z,98312.34
2023-04-09T22:28:39.372Z,98310.94
2023-04-09T22:31:06.115Z,98322.75
2023-04-09T22:33:32.729Z,98305.50
2023-04-09T22:35:59.506Z,98314.47
2023-04-09T22:38:26.215Z,98323.41
2023-04-09T22:40:52.690Z,98328.59
2023-04-09T22:43:19.687Z,98327.81
2023-04-09T22:45:56.127Z,98321.84
2023-04-09T22:48:23.145Z,98320.75
2023-04-09T22:50:50.065Z,98319.06
2023-04-09T22:53:19.338Z,98319.53
2023-04-09T22:55:52.595Z,98317.34
2023-04-09T22:58:19.225Z,98321.00
2023-04-09T23:00:47.058Z,98319.09
2023-04-09T23:03:13.679Z,98325.19
2023-04-09T23:05:40.277Z,98309.66
2023-04-09T23:08:06.825Z,98307.84
2023-04-09T23:10:33.950Z,98316.53
2023-04-09T23:13:00.476Z,98318.25
2023-04-09T23:15:27.147Z,98317.81
2023-04-09T23:17:53.963Z,98310.97
2023-04-09T23:20:20.569Z,98309.91
2023-04-09T23:22:50.211Z,98318.22
2023-04-09T23:25:16.941Z,98316.72
2023-04-09T23:27:43.611Z,98317.16
2023-04-09T23:30:10.497Z,98318.75
2023-04-09T23:32:37.220Z,98321.97
2023-04-09T23:35:04.159Z,98312.03
2023-04-09T23:37:30.649Z,98306.28
2023-04-09T23:39:57.216Z,98320.13
2023-04-09T23:42:23.991Z,98313.53
2023-04-09T23:44:50.516Z,98314.19
2023-04-09T23:47:17.445Z,98317.41
2023-04-09T23:49:44.948Z,98314.91
2023-04-09T23:52:11.499Z,98310.94
2023-04-09T23:54:37.962Z,98314.78
2023-04-09T23:57:04.459Z,98310.06
2023-04-09T23:59:33.901Z,98315.84
